sensor_id;sensor_type;location;lat;lon;timestamp;pressure;altitude;pressure_sealevel;temperature;humidity
55032;BME280;40928;51.076;7.950;2024-02-14T00:00:10;97070.66;;;5.26;100.00
55032;BME280;40928;51.076;7.950;2024-02-14T00:02:43;97069.63;;;5.20;100.00
55032;BME280;40928;51.076;7.950;2024-02-14T00:05:09;97060.06;;;5.26;100.00
55032;BME280;40928;51.076;7.950;2024-02-14T00:07:39;97066.38;;;5.18;100.00
55032;BME280;40928;51.076;7.950;2024-02-14T00:10:05;97050.88;;;5.15;100.00
55032;BME280;40928;51.076;7.950;2024-02-14T00:12:35;97052.72;;;5.08;100.00
55032;BME280;40928;51.076;7.950;2024-02-14T00:15:05;97047.63;;;5.06;100.00
55032;BME280;40928;51.076;7.950;2024-02-14T00:17:35;97047.63;;;4.99;100.00
55032;BME280;40928;51.076;7.950;2024-02-14T00:20:01;97052.50;;;5.09;100.00
55032;BME280;40928;51.076;7.950;2024-02-14T00:22:28;97049.88;;;5.09;100.00
55032;BME280;40928;51.076;7.950;2024-02-14T00:24:54;97049.69;;;5.04;100.00
55032;BME280;40928;51.076;7.950;2024-02-14T00:27:19;97056.16;;;5.01;100.00
55032;BME280;40928;51.076;7.950;2024-02-14T00:29:45;97051.28;;;4.98;100.00
55032;BME280;40928;51.076;7.950;2024-02-14T00:32:12;97050.25;;;5.06;100.00
55032;BME280;40928;51.076;7.950;2024-02-14T00:34:38;97044.56;;;5.16;100.00
55032;BME280;40928;51.076;7.950;2024-02-14T00:37:04;97036.22;;;5.06;100.00
55032;BME280;40928;51.076;7.950;2024-02-14T00:39:31;97040.50;;;5.07;100.00
55032;BME280;40928;51.076;7.950;2024-02-14T00:41:56;97047.03;;;5.04;100.00
55032;BME280;40928;51.076;7.950;2024-02-14T00:44:22;97036.63;;;5.09;100.00
55032;BME280;40928;51.076;7.950;2024-02-14T00:46:48;97035.81;;;5.09;100.00
55032;BME280;40928;51.076;7.950;2024-02-14T00:49:14;97029.69;;;5.08;100.00
55032;BME280;40928;51.076;7.950;2024-02-14T00:51:41;97030.13;;;5.12;100.00
55032;BME280;40928;51.076;7.950;2024-02-14T00:54:07;97023.22;;;5.11;100.00
55032;BME280;40928;51.076;7.950;2024-02-14T00:56:34;97030.94;;;5.12;100.00
55032;BME280;40928;51.076;7.950;2024-02-14T00:59:00;97028.69;;;5.23;100.00
55032;BME280;40928;51.076;7.950;2024-02-14T01:01:26;97032.16;;;5.16;100.00
55032;BME280;40928;51.076;7.950;2024-02-14T01:03:52;97040.72;;;5.18;100.00
55032;BME280;40928;51.076;7.950;2024-02-14T01:06:17;97041.94;;;5.29;100.00
55032;BME280;40928;51.076;7.950;2024-02-14T01:08:44;97035.81;;;5.22;100.00
55032;BME280;40928;51.076;7.950;2024-02-14T01:11:10;97035.81;;;5.15;100.00
55032;BME280;40928;51.076;7.950;2024-02-14T01:13:36;97036.22;;;5.19;100.00
55032;BME280;40928;51.076;7.950;2024-02-14T01:16:04;97033.19;;;5.22;100.00
55032;BME280;40928;51.076;7.950;2024-02-14T01:18:30;97031.94;;;5.25;100.00
55032;BME280;40928;51.076;7.950;2024-02-14T01:20:57;97033.78;;;5.24;100.00
55032;BME280;40928;51.076;7.950;2024-02-14T01:23:24;97026.03;;;5.16;100.00
55032;BME280;40928;51.076;7.950;2024-02-14T01:25:50;97034.59;;;5.11;100.00
55032;BME280;40928;51.076;7.950;2024-02-14T01:28:16;97025.03;;;5.10;100.00
55032;BME280;40928;51.076;7.950;2024-02-14T01:30:43;97028.91;;;5.08;100.00
55032;BME280;40928;51.076;7.950;2024-02-14T01:33:08;97025.25;;;5.15;100.00
55032;BME280;40928;51.076;7.950;2024-02-14T01:35:34;97007.34;;;5.04;100.00
55032;BME280;40928;51.076;7.950;2024-02-14T01:37:59;97031.16;;;5.17;100.00
55032;BME280;40928;51.076;7.950;2024-02-14T01:40:26;97022.19;;;5.18;100.00
55032;BME280;40928;51.076;7.950;2024-02-14T01:42:51;97033.78;;;5.11;100.00
55032;BME280;40928;51.076;7.950;2024-02-14T01:45:18;97027.47;;;5.18;100.00
55032;BME280;40928;51.076;7.950;2024-02-14T01:47:44;97025.25;;;5.15;100.00
55032;BME280;40928;51.076;7.950;2024-02-14T01:50:10;97020.56;;;5.17;100.00
55032;BME280;40928;51.076;7.950;2024-02-14T01:52:40;97021.19;;;5.13;100.00
55032;BME280;40928;51.076;7.950;2024-02-14T01:55:08;97012.63;;;5.11;100.00
55032;BME280;40928;51.076;7.950;2024-02-14T01:57:34;97012.63;;;5.11;100.00
55032;BME280;40928;51.076;7.950;2024-02-14T02:00:02;97006.09;;;5.20;100.00
55032;BME280;40928;51.076;7.950;2024-02-14T02:02:37;96987.78;;;5.12;100.00
55032;BME280;40928;51.076;7.950;2024-02-14T02:05:10;96978.81;;;5.13;100.00
55032;BME280;40928;51.076;7.950;2024-02-14T02:07:36;96986.75;;;4.99;100.00
55032;BME280;40928;51.076;7.950;2024-02-14T02:10:05;96986.34;;;4.96;100.00
55032;BME280;40928;51.076;7.950;2024-02-14T02:12:31;96997.75;;;4.96;100.00
55032;BME280;40928;51.076;7.950;2024-02-14T02:14:59;96981.66;;;4.98;100.00
55032;BME280;40928;51.076;7.950;2024-02-14T02:17:24;96989.22;;;4.94;100.00
55032;BME280;40928;51.076;7.950;2024-02-14T02:19:53;96987.56;;;5.00;100.00
55032;BME280;40928;51.076;7.950;2024-02-14T02:22:20;96987.34;;;5.01;100.00
55032;BME280;40928;51.076;7.950;2024-02-14T02:24:45;96988.59;;;4.99;100.00
55032;BME280;40928;51.076;7.950;2024-02-14T02:27:12;96992.03;;;4.99;100.00
55032;BME280;40928;51.076;7.950;2024-02-14T02:29:41;96984.94;;;4.93;100.00
55032;BME280;40928;51.076;7.950;2024-02-14T02:32:08;96981.44;;;4.99;100.00
55032;BME280;40928;51.076;7.950;2024-02-14T02:34:35;96985.13;;;4.92;100.00
55032;BME280;40928;51.076;7.950;2024-02-14T02:37:05;96984.31;;;4.84;100.00
55032;BME280;40928;51.076;7.950;2024-02-14T02:39:37;96992.25;;;4.84;100.00
55032;BME280;40928;51.076;7.950;2024-02-14T02:42:03;96983.31;;;4.85;100.00
55032;BME280;40928;51.076;7.950;2024-02-14T02:44:29;96991.41;;;4.84;100.00
55032;BME280;40928;51.076;7.950;2024-02-14T02:46:55;96994.28;;;4.82;100.00
55032;BME280;40928;51.076;7.950;2024-02-14T02:49:21;96995.09;;;4.83;100.00
55032;BME280;40928;51.076;7.950;2024-02-14T02:51:47;96989.78;;;4.83;100.00
55032;BME280;40928;51.076;7.950;2024-02-14T02:54:14;96992.88;;;4.86;100.00
55032;BME280;40928;51.076;7.950;2024-02-14T02:56:39;96990.63;;;4.90;100.00
55032;BME280;40928;51.076;7.950;2024-02-14T02:59:06;96991.63;;;4.82;100.00
55032;BME280;40928;51.076;7.950;2024-02-14T03:01:38;96980.03;;;4.83;100.00
55032;BME280;40928;51.076;7.950;2024-02-14T03:04:04;96999.19;;;4.79;100.00
55032;BME280;40928;51.076;7.950;2024-02-14T03:06:30;97000.81;;;4.86;100.00
55032;BME280;40928;51.076;7.950;2024-02-14T03:08:56;96989.22;;;4.87;100.00
55032;BME280;40928;51.076;7.950;2024-02-14T03:11:23;96990.41;;;4.85;100.00
55032;BME280;40928;51.076;7.950;2024-02-14T03:13:50;96984.94;;;4.80;100.00
55032;BME280;40928;51.076;7.950;2024-02-14T03:16:15;96977.78;;;4.87;100.00
55032;BME280;40928;51.076;7.950;2024-02-14T03:18:43;96981.66;;;4.78;100.00
55032;BME280;40928;51.076;7.950;2024-02-14T03:21:09;96985.13;;;4.85;100.00
55032;BME280;40928;51.076;7.950;2024-02-14T03:23:37;96982.91;;;4.82;100.00
55032;BME280;40928;51.076;7.950;2024-02-14T03:26:03;96979.22;;;4.76;100.00
55032;BME280;40928;51.076;7.950;2024-02-14T03:28:33;96987.38;;;4.81;100.00
55032;BME280;40928;51.076;7.950;2024-02-14T03:30:58;96986.56;;;4.94;100.00
55032;BME280;40928;51.076;7.950;2024-02-14T03:33:24;96978.81;;;4.93;100.00
55032;BME280;40928;51.076;7.950;2024-02-14T03:35:50;96990.63;;;4.90;100.00
55032;BME280;40928;51.076;7.950;2024-02-14T03:38:28;96986.56;;;4.87;100.00
55032;BME280;40928;51.076;7.950;2024-02-14T03:40:54;96992.44;;;4.83;100.00
55032;BME280;40928;51.076;7.950;2024-02-14T03:43:20;96989.78;;;4.83;100.00
55032;BME280;40928;51.076;7.950;2024-02-14T03:45:47;97006.50;;;4.90;100.00
55032;BME280;40928;51.076;7.950;2024-02-14T03:48:13;96995.31;;;4.88;100.00
55032;BME280;40928;51.076;7.950;2024-02-14T03:50:39;96997.94;;;4.88;100.00
55032;BME280;40928;51.076;7.950;2024-02-14T03:53:05;96993.06;;;4.85;100.00
55032;BME280;40928;51.076;7.950;2024-02-14T03:55:31;97004.47;;;4.79;100.00
55032;BME280;40928;51.076;7.950;2024-02-14T03:57:57;97000.38;;;4.83;100.00
55032;BME280;40928;51.076;7.950;2024-02-14T04:00:23;97010.56;;;4.86;100.00
55032;BME280;40928;51.076;7.950;2024-02-14T04:02:48;97006.09;;;4.80;100.00
55032;BME280;40928;51.076;7.950;2024-02-14T04:05:16;97011.38;;;4.80;100.00
55032;BME280;40928;51.076;7.950;2024-02-14T04:07:41;97013.03;;;4.81;100.00
55032;BME280;40928;51.076;7.950;2024-02-14T04:10:09;97006.50;;;4.83;100.00
55032;BME280;40928;51.076;7.950;2024-02-14T04:12:35;97011.00;;;4.90;100.00
55032;BME280;40928;51.076;7.950;2024-02-14T04:15:01;97011.78;;;4.90;100.00
55032;BME280;40928;51.076;7.950;2024-02-14T04:17:26;97019.72;;;4.90;100.00
55032;BME280;40928;51.076;7.950;2024-02-14T04:19:52;97007.91;;;4.93;100.00
55032;BME280;40928;51.076;7.950;2024-02-14T04:22:18;97007.91;;;4.79;100.00
55032;BME280;40928;51.076;7.950;2024-02-14T04:24:44;97004.47;;;4.79;100.00
55032;BME280;40928;51.076;7.950;2024-02-14T04:27:10;96999.78;;;4.81;100.00
55032;BME280;40928;51.076;7.950;2024-02-14T04:29:36;96995.91;;;4.83;100.00
55032;BME280;40928;51.076;7.950;2024-02-14T04:32:02;97007.28;;;4.84;100.00
55032;BME280;40928;51.076;7.950;2024-02-14T04:34:28;97011.78;;;4.90;100.00
55032;BME280;40928;51.076;7.950;2024-02-14T04:36:55;96997.34;;;4.99;100.00
55032;BME280;40928;51.076;7.950;2024-02-14T04:39:22;96999.78;;;4.94;100.00
55032;BME280;40928;51.076;7.950;2024-02-14T04:41:47;96999.56;;;5.09;100.00
55032;BME280;40928;51.076;7.950;2024-02-14T04:44:15;97005.88;;;5.01;100.00
55032;BME280;40928;51.076;7.950;2024-02-14T04:46:41;97004.47;;;5.06;100.00
55032;BME280;40928;51.076;7.950;2024-02-14T04:49:09;96988.59;;;5.06;100.00
55032;BME280;40928;51.076;7.950;2024-02-14T04:51:35;97000.41;;;5.03;100.00
55032;BME280;40928;51.076;7.950;2024-02-14T04:54:00;96997.53;;;4.98;100.00
55032;BME280;40928;51.076;7.950;2024-02-14T04:56:27;96993.88;;;4.99;100.00
55032;BME280;40928;51.076;7.950;2024-02-14T04:58:53;97012.63;;;4.97;100.00
55032;BME280;40928;51.076;7.950;2024-02-14T05:01:19;97004.47;;;5.06;100.00
55032;BME280;40928;51.076;7.950;2024-02-14T05:03:44;96993.47;;;5.02;100.00
55032;BME280;40928;51.076;7.950;2024-02-14T05:06:12;96993.47;;;5.02;100.00
55032;BME280;40928;51.076;7.950;2024-02-14T05:08:38;96999.38;;;4.97;100.00
55032;BME280;40928;51.076;7.950;2024-02-14T05:11:07;96996.94;;;4.96;100.00
55032;BME280;40928;51.076;7.950;2024-02-14T05:13:32;97007.72;;;5.01;100.00
55032;BME280;40928;51.076;7.950;2024-02-14T05:16:02;97000.59;;;5.01;100.00
55032;BME280;40928;51.076;7.950;2024-02-14T05:18:28;97002.63;;;4.99;100.00
55032;BME280;40928;51.076;7.950;2024-02-14T05:20:53;97011.56;;;4.98;100.00
55032;BME280;40928;51.076;7.950;2024-02-14T05:23:19;97006.50;;;5.03;100.00
55032;BME280;40928;51.076;7.950;2024-02-14T05:25:45;97009.75;;;4.99;100.00
55032;BME280;40928;51.076;7.950;2024-02-14T05:28:11;97002.03;;;5.04;100.00
55032;BME280;40928;51.076;7.950;2024-02-14T05:30:40;97006.09;;;5.00;100.00
55032;BME280;40928;51.076;7.950;2024-02-14T05:33:06;97009.75;;;4.99;100.00
55032;BME280;40928;51.076;7.950;2024-02-14T05:35:32;96998.78;;;5.02;100.00
55032;BME280;40928;51.076;7.950;2024-02-14T05:37:57;97005.69;;;4.96;100.00
55032;BME280;40928;51.076;7.950;2024-02-14T05:40:23;97005.09;;;5.01;100.00
55032;BME280;40928;51.076;7.950;2024-02-14T05:42:50;97006.91;;;5.00;100.00
55032;BME280;40928;51.076;7.950;2024-02-14T05:45:15;97003.06;;;4.96;100.00
55032;BME280;40928;51.076;7.950;2024-02-14T05:47:42;97008.94;;;4.98;100.00
55032;BME280;40928;51.076;7.950;2024-02-14T05:50:09;97002.44;;;5.08;100.00
55032;BME280;40928;51.076;7.950;2024-02-14T05:52:37;97011.78;;;5.10;100.00
55032;BME280;40928;51.076;7.950;2024-02-14T05:55:04;97015.28;;;5.11;100.00
55032;BME280;40928;51.076;7.950;2024-02-14T05:57:30;97009.34;;;5.09;100.00
55032;BME280;40928;51.076;7.950;2024-02-14T05:59:56;97012.41;;;5.06;100.00
55032;BME280;40928;51.076;7.950;2024-02-14T06:02:22;97018.72;;;5.05;100.00
55032;BME280;40928;51.076;7.950;2024-02-14T06:04:47;97020.34;;;5.12;100.00
55032;BME280;40928;51.076;7.950;2024-02-14T06:07:13;97024.63;;;5.13;100.00
55032;BME280;40928;51.076;7.950;2024-02-14T06:09:39;97019.94;;;5.15;100.00
55032;BME280;40928;51.076;7.950;2024-02-14T06:12:06;97009.38;;;5.02;100.00
55032;BME280;40928;51.076;7.950;2024-02-14T06:14:31;97023.22;;;5.11;100.00
55032;BME280;40928;51.076;7.950;2024-02-14T06:16:59;97024.00;;;5.18;100.00
55032;BME280;40928;51.076;7.950;2024-02-14T06:19:26;97029.28;;;5.25;100.00
55032;BME280;40928;51.076;7.950;2024-02-14T06:21:52;97036.84;;;5.21;100.00
55032;BME280;40928;51.076;7.950;2024-02-14T06:24:18;97039.50;;;5.21;100.00
55032;BME280;40928;51.076;7.950;2024-02-14T06:26:47;97040.50;;;5.20;100.00
55032;BME280;40928;51.076;7.950;2024-02-14T06:29:13;97045.41;;;5.23;100.00
55032;BME280;40928;51.076;7.950;2024-02-14T06:31:39;97046.63;;;5.27;100.00
55032;BME280;40928;51.076;7.950;2024-02-14T06:34:04;97044.38;;;5.31;100.00
55032;BME280;40928;51.076;7.950;2024-02-14T06:36:32;97047.63;;;5.33;100.00
55032;BME280;40928;51.076;7.950;2024-02-14T06:38:58;97045.19;;;5.31;100.00
55032;BME280;40928;51.076;7.950;2024-02-14T06:41:24;97040.31;;;5.35;100.00
55032;BME280;40928;51.076;7.950;2024-02-14T06:43:50;97047.25;;;5.36;100.00
55032;BME280;40928;51.076;7.950;2024-02-14T06:46:15;97051.50;;;5.37;100.00
55032;BME280;40928;51.076;7.950;2024-02-14T06:48:41;97050.69;;;5.37;100.00
55032;BME280;40928;51.076;7.950;2024-02-14T06:51:07;97062.69;;;5.39;100.00
55032;BME280;40928;51.076;7.950;2024-02-14T06:53:33;97062.91;;;5.38;100.00
55032;BME280;40928;51.076;7.950;2024-02-14T06:56:00;97052.94;;;5.46;100.00
55032;BME280;40928;51.076;7.950;2024-02-14T06:58:25;97072.25;;;5.47;100.00
55032;BME280;40928;51.076;7.950;2024-02-14T07:00:51;97071.25;;;5.48;100.00
55032;BME280;40928;51.076;7.950;2024-02-14T07:03:17;97071.88;;;5.43;100.00
55032;BME280;40928;51.076;7.950;2024-02-14T07:05:43;97072.06;;;5.48;100.00
55032;BME280;40928;51.076;7.950;2024-02-14T07:08:09;97085.09;;;5.50;100.00
55032;BME280;40928;51.076;7.950;2024-02-14T07:10:34;97080.41;;;5.52;100.00
55032;BME280;40928;51.076;7.950;2024-02-14T07:13:00;97088.78;;;5.49;100.00
55032;BME280;40928;51.076;7.950;2024-02-14T07:15:26;97087.56;;;5.52;100.00
55032;BME280;40928;51.076;7.950;2024-02-14T07:17:54;97092.03;;;5.51;100.00
55032;BME280;40928;51.076;7.950;2024-02-14T07:20:21;97094.91;;;5.56;100.00
55032;BME280;40928;51.076;7.950;2024-02-14T07:22:47;97093.88;;;5.51;100.00
55032;BME280;40928;51.076;7.950;2024-02-14T07:25:21;97102.63;;;5.58;100.00
55032;BME280;40928;51.076;7.950;2024-02-14T07:27:46;97095.50;;;5.58;100.00
55032;BME280;40928;51.076;7.950;2024-02-14T07:30:15;97104.25;;;5.59;100.00
55032;BME280;40928;51.076;7.950;2024-02-14T07:32:43;97098.13;;;5.72;100.00
55032;BME280;40928;51.076;7.950;2024-02-14T07:35:10;97105.47;;;5.63;100.00
55032;BME280;40928;51.076;7.950;2024-02-14T07:37:36;97102.63;;;5.64;100.00
55032;BME280;40928;51.076;7.950;2024-02-14T07:40:03;97102.81;;;5.70;100.00
55032;BME280;40928;51.076;7.950;2024-02-14T07:42:28;97110.16;;;5.68;100.00
55032;BME280;40928;51.076;7.950;2024-02-14T07:44:54;97109.94;;;5.69;100.00
55032;BME280;40928;51.076;7.950;2024-02-14T07:47:22;97104.84;;;5.81;100.00
55032;BME280;40928;51.076;7.950;2024-02-14T07:49:47;97104.22;;;5.79;100.00
55032;BME280;40928;51.076;7.950;2024-02-14T07:52:13;97118.09;;;5.81;100.00
55032;BME280;40928;51.076;7.950;2024-02-14T07:54:39;97100.38;;;5.75;100.00
55032;BME280;40928;51.076;7.950;2024-02-14T07:57:05;97097.72;;;5.75;100.00
55032;BME280;40928;51.076;7.950;2024-02-14T07:59:30;97108.91;;;5.77;100.00
55032;BME280;40928;51.076;7.950;2024-02-14T08:01:56;97108.31;;;5.82;100.00
55032;BME280;40928;51.076;7.950;2024-02-14T08:04:22;97102.00;;;5.89;100.00
55032;BME280;40928;51.076;7.950;2024-02-14T08:06:48;97109.34;;;5.87;100.00
55032;BME280;40928;51.076;7.950;2024-02-14T08:09:17;97107.88;;;5.85;100.00
55032;BME280;40928;51.076;7.950;2024-02-14T08:11:43;97100.97;;;5.90;100.00
55032;BME280;40928;51.076;7.950;2024-02-14T08:14:10;97111.56;;;6.04;100.00
55032;BME280;40928;51.076;7.950;2024-02-14T08:16:36;97116.25;;;6.08;100.00
55032;BME280;40928;51.076;7.950;2024-02-14T08:19:02;97118.50;;;6.05;100.00
55032;BME280;40928;51.076;7.950;2024-02-14T08:21:29;97107.47;;;6.08;100.00
55032;BME280;40928;51.076;7.950;2024-02-14T08:23:54;97112.97;;;6.13;100.00
55032;BME280;40928;51.076;7.950;2024-02-14T08:26:23;97120.50;;;6.16;100.00
55032;BME280;40928;51.076;7.950;2024-02-14T08:28:50;97113.34;;;6.23;100.00
55032;BME280;40928;51.076;7.950;2024-02-14T08:31:15;97124.78;;;6.24;100.00
55032;BME280;40928;51.076;7.950;2024-02-14T08:33:41;97125.38;;;6.26;100.00
55032;BME280;40928;51.076;7.950;2024-02-14T08:36:07;97122.31;;;6.29;100.00
55032;BME280;40928;51.076;7.950;2024-02-14T08:38:34;97123.72;;;6.32;100.00
55032;BME280;40928;51.076;7.950;2024-02-14T08:41:04;97127.59;;;6.36;100.00
55032;BME280;40928;51.076;7.950;2024-02-14T08:43:30;97119.66;;;6.36;100.00
55032;BME280;40928;51.076;7.950;2024-02-14T08:45:57;97117.00;;;6.36;100.00
55032;BME280;40928;51.076;7.950;2024-02-14T08:48:23;97125.31;;;6.46;100.00
55032;BME280;40928;51.076;7.950;2024-02-14T08:50:49;97125.31;;;6.46;100.00
55032;BME280;40928;51.076;7.950;2024-02-14T08:53:15;97121.22;;;6.50;100.00
55032;BME280;40928;51.076;7.950;2024-02-14T08:55:41;97128.94;;;6.59;100.00
55032;BME280;40928;51.076;7.950;2024-02-14T08:58:08;97126.69;;;6.55;100.00
55032;BME280;40928;51.076;7.950;2024-02-14T09:00:35;97127.69;;;6.68;100.00
55032;BME280;40928;51.076;7.950;2024-02-14T09:03:03;97126.44;;;6.70;100.00
55032;BME280;40928;51.076;7.950;2024-02-14T09:05:29;97128.03;;;6.78;100.00
55032;BME280;40928;51.076;7.950;2024-02-14T09:07:54;97119.44;;;6.83;100.00
55032;BME280;40928;51.076;7.950;2024-02-14T09:10:21;97133.72;;;6.82;100.00
55032;BME280;40928;51.076;7.950;2024-02-14T09:12:47;97140.84;;;6.88;100.00
55032;BME280;40928;51.076;7.950;2024-02-14T09:15:13;97131.44;;;6.92;100.00
55032;BME280;40928;51.076;7.950;2024-02-14T09:17:39;97140.59;;;6.96;100.00
55032;BME280;40928;51.076;7.950;2024-02-14T09:20:08;97137.16;;;6.96;100.00
55032;BME280;40928;51.076;7.950;2024-02-14T09:22:38;97143.66;;;7.00;100.00
55032;BME280;40928;51.076;7.950;2024-02-14T09:25:07;97134.06;;;6.99;100.00
55032;BME280;40928;51.076;7.950;2024-02-14T09:27:35;97136.09;;;7.04;100.00
55032;BME280;40928;51.076;7.950;2024-02-14T09:30:02;97138.09;;;7.08;100.00
55032;BME280;40928;51.076;7.950;2024-02-14T09:32:30;97141.59;;;7.02;100.00
55032;BME280;40928;51.076;7.950;2024-02-14T09:34:58;97145.03;;;7.09;100.00
55032;BME280;40928;51.076;7.950;2024-02-14T09:37:24;97145.22;;;7.14;100.00
55032;BME280;40928;51.076;7.950;2024-02-14T09:39:49;97145.63;;;7.11;100.00
55032;BME280;40928;51.076;7.950;2024-02-14T09:42:16;97144.63;;;7.12;100.00
55032;BME280;40928;51.076;7.950;2024-02-14T09:44:45;97145.16;;;7.21;100.00
55032;BME280;40928;51.076;7.950;2024-02-14T09:47:12;97137.44;;;7.45;100.00
55032;BME280;40928;51.076;7.950;2024-02-14T09:52:15;97149.56;;;7.34;100.00
55032;BME280;40928;51.076;7.950;2024-02-14T09:54:41;97150.88;;;7.25;100.00
55032;BME280;40928;51.076;7.950;2024-02-14T09:57:08;97141.25;;;7.24;100.00
55032;BME280;40928;51.076;7.950;2024-02-14T09:59:35;97155.56;;;7.55;100.00
55032;BME280;40928;51.076;7.950;2024-02-14T10:02:01;97158.22;;;7.55;100.00
55032;BME280;40928;51.076;7.950;2024-02-14T10:04:27;97156.59;;;7.54;100.00
55032;BME280;40928;51.076;7.950;2024-02-14T10:06:53;97162.72;;;7.54;100.00
55032;BME280;40928;51.076;7.950;2024-02-14T10:09:20;97162.94;;;7.53;100.00
55032;BME280;40928;51.076;7.950;2024-02-14T10:11:48;97164.22;;;7.43;100.00
55032;BME280;40928;51.076;7.950;2024-02-14T10:14:14;97165.22;;;7.49;100.00
55032;BME280;40928;51.076;7.950;2024-02-14T10:16:40;97166.19;;;7.55;100.00
55032;BME280;40928;51.076;7.950;2024-02-14T10:19:15;97177.75;;;7.67;100.00
55032;BME280;40928;51.076;7.950;2024-02-14T10:21:41;97174.47;;;7.65;100.00
55032;BME280;40928;51.076;7.950;2024-02-14T10:24:08;97180.25;;;7.62;100.00
55032;BME280;40928;51.076;7.950;2024-02-14T10:26:37;97177.16;;;7.65;100.00
55032;BME280;40928;51.076;7.950;2024-02-14T10:29:03;97183.66;;;7.69;100.00
55032;BME280;40928;51.076;7.950;2024-02-14T10:31:29;97189.59;;;7.71;100.00
55032;BME280;40928;51.076;7.950;2024-02-14T10:33:55;97191.22;;;7.72;100.00
55032;BME280;40928;51.076;7.950;2024-02-14T10:36:24;97193.63;;;7.74;100.00
55032;BME280;40928;51.076;7.950;2024-02-14T10:38:51;97196.53;;;7.72;100.00
55032;BME280;40928;51.076;7.950;2024-02-14T10:41:17;97188.13;;;7.75;100.00
55032;BME280;40928;51.076;7.950;2024-02-14T10:43:43;97194.41;;;7.81;100.00
55032;BME280;40928;51.076;7.950;2024-02-14T10:46:23;97191.97;;;7.80;100.00
55032;BME280;40928;51.076;7.950;2024-02-14T10:48:58;97179.22;;;7.88;100.00
55032;BME280;40928;51.076;7.950;2024-02-14T10:51:31;97177.09;;;7.97;100.00
55032;BME280;40928;51.076;7.950;2024-02-14T10:53:58;97192.03;;;7.98;100.00
55032;BME280;40928;51.076;7.950;2024-02-14T10:56:28;97190.44;;;8.16;100.00
55032;BME280;40928;51.076;7.950;2024-02-14T10:58:58;97194.06;;;8.21;100.00
55032;BME280;40928;51.076;7.950;2024-02-14T11:01:29;97189.13;;;8.25;100.00
55032;BME280;40928;51.076;7.950;2024-02-14T11:04:00;97199.56;;;8.27;100.00
55032;BME280;40928;51.076;7.950;2024-02-14T11:06:26;97192.44;;;8.20;100.00
55032;BME280;40928;51.076;7.950;2024-02-14T11:09:02;97201.50;;;8.13;100.00
55032;BME280;40928;51.076;7.950;2024-02-14T11:11:33;97198.59;;;8.21;100.00
55032;BME280;40928;51.076;7.950;2024-02-14T11:13:59;97194.00;;;8.28;100.00
55032;BME280;40928;51.076;7.950;2024-02-14T11:16:26;97178.78;;;8.35;100.00
55032;BME280;40928;51.076;7.950;2024-02-14T11:19:12;97190.13;;;8.49;100.00
55032;BME280;40928;51.076;7.950;2024-02-14T11:21:42;97189.50;;;8.54;100.00
55032;BME280;40928;51.076;7.950;2024-02-14T11:24:12;97185.03;;;8.66;100.00
55032;BME280;40928;51.076;7.950;2024-02-14T11:29:16;97179.03;;;8.90;100.00
55032;BME280;40928;51.076;7.950;2024-02-14T11:31:43;97183.91;;;8.93;100.00
55032;BME280;40928;51.076;7.950;2024-02-14T11:34:12;97187.19;;;8.95;100.00
55032;BME280;40928;51.076;7.950;2024-02-14T11:36:39;97170.81;;;8.91;100.00
55032;BME280;40928;51.076;7.950;2024-02-14T11:39:07;97183.38;;;9.03;100.00
55032;BME280;40928;51.076;7.950;2024-02-14T11:41:34;97182.81;;;9.12;100.00
55032;BME280;40928;51.076;7.950;2024-02-14T11:44:04;97187.56;;;9.41;100.00
55032;BME280;40928;51.076;7.950;2024-02-14T11:46:34;97200.81;;;9.17;100.00
55032;BME280;40928;51.076;7.950;2024-02-14T11:49:02;97189.69;;;9.20;100.00
55032;BME280;40928;51.076;7.950;2024-02-14T11:51:33;97184.22;;;9.34;100.00
55032;BME280;40928;51.076;7.950;2024-02-14T11:54:01;97190.41;;;9.58;100.00
55032;BME280;40928;51.076;7.950;2024-02-14T11:56:31;97183.88;;;9.42;100.00
55032;BME280;40928;51.076;7.950;2024-02-14T11:59:00;97185.31;;;9.56;100.00
55032;BME280;40928;51.076;7.950;2024-02-14T12:01:31;97188.44;;;9.65;100.00
55032;BME280;40928;51.076;7.950;2024-02-14T12:03:59;97191.81;;;9.60;100.00
55032;BME280;40928;51.076;7.950;2024-02-14T12:06:27;97188.69;;;9.64;100.00
55032;BME280;40928;51.076;7.950;2024-02-14T12:08:54;97187.38;;;9.54;100.00
55032;BME280;40928;51.076;7.950;2024-02-14T12:11:21;97189.97;;;9.31;100.00
55032;BME280;40928;51.076;7.950;2024-02-14T12:13:50;97188.66;;;9.21;100.00
55032;BME280;40928;51.076;7.950;2024-02-14T12:16:16;97173.19;;;8.99;100.00
55032;BME280;40928;51.076;7.950;2024-02-14T12:18:44;97188.75;;;9.14;100.00
55032;BME280;40928;51.076;7.950;2024-02-14T12:21:10;97186.09;;;9.14;100.00
55032;BME280;40928;51.076;7.950;2024-02-14T12:23:37;97189.78;;;9.13;100.00
55032;BME280;40928;51.076;7.950;2024-02-14T12:26:03;97195.66;;;9.04;100.00
55032;BME280;40928;51.076;7.950;2024-02-14T12:28:30;97190.31;;;9.04;100.00
55032;BME280;40928;51.076;7.950;2024-02-14T12:30:57;97189.16;;;8.99;100.00
55032;BME280;40928;51.076;7.950;2024-02-14T12:33:25;97187.75;;;8.97;100.00
55032;BME280;40928;51.076;7.950;2024-02-14T12:35:51;97184.97;;;8.73;100.00
55032;BME280;40928;51.076;7.950;2024-02-14T12:38:20;97195.78;;;8.60;100.00
55032;BME280;40928;51.076;7.950;2024-02-14T12:40:46;97199.81;;;8.62;100.00
55032;BME280;40928;51.076;7.950;2024-02-14T12:43:13;97191.84;;;8.62;100.00
55032;BME280;40928;51.076;7.950;2024-02-14T12:45:43;97199.06;;;8.74;100.00
55032;BME280;40928;51.076;7.950;2024-02-14T12:48:12;97197.31;;;8.67;100.00
55032;BME280;40928;51.076;7.950;2024-02-14T12:50:41;97188.22;;;8.57;100.00
55032;BME280;40928;51.076;7.950;2024-02-14T12:53:13;97197.25;;;8.56;100.00
55032;BME280;40928;51.076;7.950;2024-02-14T12:55:39;97184.97;;;8.55;100.00
55032;BME280;40928;51.076;7.950;2024-02-14T12:58:07;97187.41;;;8.56;100.00
55032;BME280;40928;51.076;7.950;2024-02-14T13:00:33;97190.75;;;8.45;100.00
55032;BME280;40928;51.076;7.950;2024-02-14T13:02:59;97189.09;;;8.50;100.00